Search for airport 
image banner adimage banner adimage banner ad
image banner ad

73CL - Julian Hinds Pump Plant Airstrip

Located in Desert Center, United States

ICAO - 73CL, IATA -

Data provided by Airmate  

General information

Coordinates: N33°41'56" W115°38'13"
Elevation is 1335 feet MSL.
Magnetic variation is 13° East
View others Airports in California

Operational data

Special qualification required
Current time UTC:
Current local time:
Weather at : KTRM - Jacqueline Cochran Rgnl ( 49 km )
METAR: KTRM 221252Z AUTO 26005KT 10SM CLR 25/10 A2975 RMK AO2 SLP076 T02500100 $
TAF: KTRM 221137Z 2212/2312 VRB05KT P6SM BKN200 FM221800 13008KT P6SM SCT250 FM222100 14014G21KT P6SM SCT250 FM230100 33008KT P6SM BKN200
View NOTAMs / SUP AIP / TFR affecting this airport [VIEW]
Communications frequencies: [VIEW]

Runways:

RWY identifierQFULength (ft)Width (ft)SurfaceLDA (ft)
04200030ASPH
22200030ASPH

Airport contact information

Address: Desert Center United States

Satellite view of 73CL